Time;durP1;ratioP1;P1;durP2;ratioP2;P2;SDS_P1;SDS_P2;PMS_P1;PMS_P2;Temp;Humidity;BMP_temperature;BMP_pressure;BME280_temperature;BME280_humidity;BME280_pressure;Samples;Min_cycle;Max_cycle;Signal;HPM_P1;HPM_P2
2023/06/18 00:01:17;;;;;;;;;;;;;;;;;;5003125;28;19921;-82
2023/06/18 00:04:03;;;;;;;;;;;;;;;;;;5004640;28;20497;-82
2023/06/18 00:06:50;;;;;;;;;;;;;;;;;;5000974;28;19921;-82
2023/06/18 00:09:36;;;;;;;;;;;;;;;;;;5000127;28;19920;-82
2023/06/18 00:12:23;;;;;;;;;;;;;;;;;;4993153;28;19921;-82
2023/06/18 00:15:09;;;;;;;;;;;;;;;;;;5002729;28;19921;-82
2023/06/18 00:17:56;;;;;;;;;;;;;;;;;;4999694;28;19924;-82
2023/06/18 00:20:42;;;;;;;;;;;;;;;;;;5003077;28;19917;-82
2023/06/18 00:23:29;;;;;;;;;;;;;;;;;;4995350;28;20419;-82
2023/06/18 00:26:15;;;;;;;;;;;;;;;;;;4982251;28;20647;-83
2023/06/18 00:29:02;;;;;;;;;;;;;;;;;;4984544;28;19924;-82
2023/06/18 00:31:49;;;;;;;;;;;;;;;;;;4977688;28;19922;-83
2023/06/18 00:34:35;;;;;;;;;;;;;;;;;;4982865;28;19918;-83
2023/06/18 00:37:26;;;;;;;;;;;;;;;;;;4977227;28;19930;-82
2023/06/18 00:40:12;;;;;;;;;;;;;;;;;;4979297;28;19917;-83
2023/06/18 00:42:59;;;;;;;;;;;;;;;;;;4966826;28;19914;-85
2023/06/18 00:45:46;;;;;;;;;;;;;;;;;;4965412;28;19914;-83
2023/06/18 00:48:35;;;;;;;;;;;;;;;;;;4982920;28;19924;-83
2023/06/18 00:51:22;;;;;;;;;;;;;;;;;;4981786;28;19924;-83
2023/06/18 00:54:08;;;;;;;;;;;;;;;;;;4974536;28;19918;-83
2023/06/18 00:56:57;;;;;;;;;;;;;;;;;;4980224;28;19957;-83
2023/06/18 00:59:43;;;;;;;;;;;;;;;;;;4983412;28;19917;-83
2023/06/18 01:02:30;;;;;;;;;;;;;;;;;;4978977;28;19918;-83
2023/06/18 01:05:16;;;;;;;;;;;;;;;;;;4978204;28;19918;-83
2023/06/18 01:08:06;;;;;;;;;;;;;;;;;;4979266;28;20574;-83
2023/06/18 01:10:52;;;;;;;;;;;;;;;;;;4984946;28;20033;-83
2023/06/18 01:13:41;;;;;;;;;;;;;;;;;;4979914;28;19922;-81
2023/06/18 01:16:30;;;;;;;;;;;;;;;;;;4983545;28;19937;-83
2023/06/18 01:19:21;;;;;;;;;;;;;;;;;;4978415;28;19926;-82
2023/06/18 01:22:08;;;;;;;;;;;;;;;;;;4983627;28;20356;-83
2023/06/18 01:24:54;;;;;;;;;;;;;;;;;;4977798;28;19933;-82
2023/06/18 01:27:41;;;;;;;;;;;;;;;;;;5007439;28;19925;-83
2023/06/18 01:30:27;;;;;;;;;;;;;;;;;;4999046;28;20060;-83
2023/06/18 01:33:14;;;;;;;;;;;;;;;;;;5010769;28;19917;-82
2023/06/18 01:36:00;;;;;;;;;;;;;;;;;;4998135;28;19940;-83
2023/06/18 01:38:47;;;;;;;;;;;;;;;;;;5004204;28;19928;-83
2023/06/18 01:41:33;;;;;;;;;;;;;;;;;;5005969;28;19913;-83
2023/06/18 01:44:20;;;;;;;;;;;;;;;;;;5009428;28;20325;-83
2023/06/18 01:47:06;;;;;;;;;;;;;;;;;;4988501;28;20004;-83
2023/06/18 01:49:53;;;;;;;;;;;;;;;;;;4998285;28;19958;-83
2023/06/18 01:52:39;;;;;;;;;;;;;;;;;;5006665;28;20499;-82
2023/06/18 01:55:27;;;;;;;;;;;;;;;;;;5001302;28;19932;-82
2023/06/18 01:58:13;;;;;;;;;;;;;;;;;;5002519;28;19961;-83
2023/06/18 02:01:00;;;;;;;;;;;;;;;;;;5000604;28;19914;-81
2023/06/18 02:03:47;;;;;;;;;;;;;;;;;;5002073;28;19924;-82
2023/06/18 02:06:33;;;;;;;;;;;;;;;;;;5007516;28;19928;-83
2023/06/18 02:09:20;;;;;;;;;;;;;;;;;;5019193;28;19936;-83
2023/06/18 02:12:06;;;;;;;;;;;;;;;;;;5008258;28;19917;-83
2023/06/18 02:14:53;;;;;;;;;;;;;;;;;;4999898;28;19924;-83
2023/06/18 02:17:40;;;;;;;;;;;;;;;;;;4999401;28;20450;-83
2023/06/18 02:20:26;;;;;;;;;;;;;;;;;;5008407;28;19921;-82
2023/06/18 02:23:13;;;;;;;;;;;;;;;;;;5004849;28;19925;-83
2023/06/18 02:26:00;;;;;;;;;;;;;;;;;;5004963;28;19929;-82
2023/06/18 02:28:46;;;;;;;;;;;;;;;;;;4998652;28;19924;-82
2023/06/18 02:31:33;;;;;;;;;;;;;;;;;;5003244;28;19929;-84
2023/06/18 02:34:19;;;;;;;;;;;;;;;;;;4999887;28;19921;-84
2023/06/18 02:37:09;;;;;;;;;;;;;;;;;;5009221;28;19933;-81
2023/06/18 02:39:55;;;;;;;;;;;;;;;;;;4999490;28;19921;-82
2023/06/18 02:42:48;;;;;;;;;;;;;;;;;;4999825;28;19928;-82
2023/06/18 02:45:35;;;;;;;;;;;;;;;;;;4999934;28;19924;-82
2023/06/18 02:48:21;;;;;;;;;;;;;;;;;;5002398;28;19923;-81
2023/06/18 02:51:08;;;;;;;;;;;;;;;;;;5007066;28;19921;-82
2023/06/18 02:53:54;;;;;;;;;;;;;;;;;;4994222;28;19928;-83
2023/06/18 02:56:41;;;;;;;;;;;;;;;;;;4993670;28;20448;-83
2023/06/18 02:59:31;;;;;;;;;;;;;;;;;;4996587;28;19917;-84
2023/06/18 03:02:18;;;;;;;;;;;;;;;;;;4999351;28;19928;-84
2023/06/18 03:05:04;;;;;;;;;;;;;;;;;;5004688;28;19917;-82
2023/06/18 03:07:51;;;;;;;;;;;;;;;;;;4999196;28;19922;-81
2023/06/18 03:10:38;;;;;;;;;;;;;;;;;;4996729;28;19925;-82
2023/06/18 03:13:24;;;;;;;;;;;;;;;;;;4998486;28;19922;-82
2023/06/18 03:16:11;;;;;;;;;;;;;;;;;;5002217;28;19926;-82
2023/06/18 03:18:57;;;;;;;;;;;;;;;;;;4997338;28;19917;-83
2023/06/18 03:21:44;;;;;;;;;;;;;;;;;;4998707;28;19928;-83
2023/06/18 03:24:32;;;;;;;;;;;;;;;;;;4994426;28;19929;-82
2023/06/18 03:27:19;;;;;;;;;;;;;;;;;;4996549;28;19928;-82
2023/06/18 03:30:06;;;;;;;;;;;;;;;;;;4967422;28;20376;-83
2023/06/18 03:32:55;;;;;;;;;;;;;;;;;;4997271;28;19917;-82
2023/06/18 03:35:41;;;;;;;;;;;;;;;;;;4999200;28;20309;-82
2023/06/18 03:38:28;;;;;;;;;;;;;;;;;;4993049;28;20400;-83
2023/06/18 03:41:14;;;;;;;;;;;;;;;;;;4999253;28;19940;-82
2023/06/18 03:44:01;;;;;;;;;;;;;;;;;;4998197;28;19937;-83
2023/06/18 03:46:47;;;;;;;;;;;;;;;;;;5001971;28;19918;-82
2023/06/18 03:49:34;;;;;;;;;;;;;;;;;;4998797;28;19922;-84
2023/06/18 03:52:20;;;;;;;;;;;;;;;;;;4986786;28;19918;-83
2023/06/18 03:55:08;;;;;;;;;;;;;;;;;;4994591;28;20373;-83
2023/06/18 03:57:55;;;;;;;;;;;;;;;;;;4990567;28;19932;-84
2023/06/18 04:00:50;;;;;;;;;;;;;;;;;;4965885;28;19925;-82
2023/06/18 04:03:37;;;;;;;;;;;;;;;;;;4988142;28;19918;-83
2023/06/18 04:06:24;;;;;;;;;;;;;;;;;;4998519;28;19926;-83
2023/06/18 04:09:10;;;;;;;;;;;;;;;;;;4998767;28;19918;-83
2023/06/18 04:11:57;;;;;;;;;;;;;;;;;;4993881;28;19924;-83
2023/06/18 04:14:43;;;;;;;;;;;;;;;;;;4996253;28;19920;-84
2023/06/18 04:17:30;;;;;;;;;;;;;;;;;;5001073;28;19925;-83
2023/06/18 04:20:16;;;;;;;;;;;;;;;;;;4997229;28;19948;-83
2023/06/18 04:23:03;;;;;;;;;;;;;;;;;;4996911;28;19928;-82
2023/06/18 04:25:49;;;;;;;;;;;;;;;;;;4997207;28;19925;-83
2023/06/18 04:28:36;;;;;;;;;;;;;;;;;;5001389;28;19917;-82
2023/06/18 04:31:23;;;;;;;;;;;;;;;;;;4992801;28;20293;-82
2023/06/18 04:34:10;;;;;;;;;;;;;;;;;;4999389;28;19918;-83
2023/06/18 04:36:56;;;;;;;;;;;;;;;;;;4996093;28;20385;-83
2023/06/18 04:39:43;;;;;;;;;;;;;;;;;;4994675;28;19917;-83
2023/06/18 04:42:29;;;;;;;;;;;;;;;;;;4997539;28;19917;-83
2023/06/18 04:45:16;;;;;;;;;;;;;;;;;;4984175;28;19921;-83
2023/06/18 04:48:02;;;;;;;;;;;;;;;;;;5002561;28;20300;-86
2023/06/18 04:50:49;;;;;;;;;;;;;;;;;;4989171;28;19917;-83
2023/06/18 04:53:37;;;;;;;;;;;;;;;;;;4994596;28;19928;-83
2023/06/18 04:56:23;;;;;;;;;;;;;;;;;;4993960;28;20575;-82
2023/06/18 04:59:19;;;;;;;;;;;;;;;;;;4992720;28;19928;-84
2023/06/18 05:02:05;;;;;;;;;;;;;;;;;;4995326;28;19945;-84
2023/06/18 05:04:52;;;;;;;;;;;;;;;;;;4998098;28;20296;-82
2023/06/18 05:07:38;;;;;;;;;;;;;;;;;;5000646;28;19963;-82
2023/06/18 05:10:25;;;;;;;;;;;;;;;;;;5000738;28;20381;-82
2023/06/18 05:13:11;;;;;;;;;;;;;;;;;;4993920;28;19923;-83
2023/06/18 05:15:58;;;;;;;;;;;;;;;;;;4983031;28;20675;-83
2023/06/18 05:18:44;;;;;;;;;;;;;;;;;;5003110;28;19924;-85
2023/06/18 05:21:31;;;;;;;;;;;;;;;;;;4996321;28;19925;-82
2023/06/18 05:24:17;;;;;;;;;;;;;;;;;;4997986;28;19930;-83
2023/06/18 05:27:04;;;;;;;;;;;;;;;;;;5003127;28;19922;-85
2023/06/18 05:29:54;;;;;;;;;;;;;;;;;;4951505;28;19921;-82
2023/06/18 05:32:40;;;;;;;;;;;;;;;;;;4993574;28;19913;-83
2023/06/18 05:35:27;;;;;;;;;;;;;;;;;;4993874;28;19944;-83
2023/06/18 05:38:13;;;;;;;;;;;;;;;;;;4985247;28;19922;-82
2023/06/18 05:41:00;;;;;;;;;;;;;;;;;;4995598;28;19929;-82
2023/06/18 05:43:46;;;;;;;;;;;;;;;;;;4993764;28;19917;-83
2023/06/18 05:46:32;;;;;;;;;;;;;;;;;;4993985;28;20403;-83
2023/06/18 05:49:19;;;;;;;;;;;;;;;;;;4991964;28;19918;-83
2023/06/18 05:52:06;;;;;;;;;;;;;;;;;;4995714;28;19925;-82
2023/06/18 05:54:52;;;;;;;;;;;;;;;;;;4998498;28;19924;-87
2023/06/18 05:57:39;;;;;;;;;;;;;;;;;;4996579;28;19933;-82
2023/06/18 06:00:26;;;;;;;;;;;;;;;;;;4994308;28;19918;-83
2023/06/18 06:03:13;;;;;;;;;;;;;;;;;;4998552;28;20502;-82
2023/06/18 06:06:01;;;;;;;;;;;;;;;;;;4998157;28;19944;-82
2023/06/18 06:08:47;;;;;;;;;;;;;;;;;;5001838;28;20365;-82
2023/06/18 06:11:36;;;;;;;;;;;;;;;;;;4996969;28;19922;-83
2023/06/18 06:14:23;;;;;;;;;;;;;;;;;;5000037;28;19925;-82
2023/06/18 06:17:09;;;;;;;;;;;;;;;;;;5007273;28;19948;-82
2023/06/18 06:19:56;;;;;;;;;;;;;;;;;;4989405;28;19924;-82
2023/06/18 06:22:42;;;;;;;;;;;;;;;;;;4994808;28;20670;-83
2023/06/18 06:25:29;;;;;;;;;;;;;;;;;;4986840;28;19922;-83
2023/06/18 06:28:16;;;;;;;;;;;;;;;;;;5002413;28;19918;-83
2023/06/18 06:31:02;;;;;;;;;;;;;;;;;;4990902;28;20391;-81
2023/06/18 06:33:50;;;;;;;;;;;;;;;;;;5002714;28;19914;-82
2023/06/18 06:36:38;;;;;;;;;;;;;;;;;;5003708;28;20254;-83
2023/06/18 06:39:24;;;;;;;;;;;;;;;;;;4993024;28;19918;-84
2023/06/18 06:42:12;;;;;;;;;;;;;;;;;;4999235;28;19941;-83
2023/06/18 06:45:00;;;;;;;;;;;;;;;;;;4999367;28;19918;-83
2023/06/18 06:47:47;;;;;;;;;;;;;;;;;;5002998;28;19917;-83
2023/06/18 06:50:33;;;;;;;;;;;;;;;;;;4995612;28;19918;-84
2023/06/18 06:53:20;;;;;;;;;;;;;;;;;;5006929;28;19918;-83
2023/06/18 06:56:06;;;;;;;;;;;;;;;;;;5011334;28;19933;-84
2023/06/18 06:58:53;;;;;;;;;;;;;;;;;;4962208;28;19949;-83
2023/06/18 07:01:39;;;;;;;;;;;;;;;;;;4998631;28;19918;-83
2023/06/18 07:04:27;;;;;;;;;;;;;;;;;;5008256;28;19913;-83
2023/06/18 07:07:13;;;;;;;;;;;;;;;;;;4999236;28;19921;-83
2023/06/18 07:10:00;;;;;;;;;;;;;;;;;;4992382;28;20559;-82
2023/06/18 07:12:46;;;;;;;;;;;;;;;;;;5000206;28;19921;-83
2023/06/18 07:15:33;;;;;;;;;;;;;;;;;;4992887;28;20295;-84
2023/06/18 07:18:19;;;;;;;;;;;;;;;;;;4977997;28;19929;-84
2023/06/18 07:21:06;;;;;;;;;;;;;;;;;;4977602;28;20230;-83
2023/06/18 07:23:52;;;;;;;;;;;;;;;;;;4997559;28;19929;-82
2023/06/18 07:26:41;;;;;;;;;;;;;;;;;;5000205;28;20365;-83
2023/06/18 07:29:27;;;;;;;;;;;;;;;;;;4994897;28;19921;-83
2023/06/18 07:32:14;;;;;;;;;;;;;;;;;;5000042;28;19932;-82
2023/06/18 07:35:00;;;;;;;;;;;;;;;;;;5002301;28;19936;-82
2023/06/18 07:37:47;;;;;;;;;;;;;;;;;;4996555;28;19936;-83
2023/06/18 07:40:36;;;;;;;;;;;;;;;;;;4998247;28;20191;-82
2023/06/18 07:43:23;;;;;;;;;;;;;;;;;;5005723;28;19917;-82
2023/06/18 07:46:09;;;;;;;;;;;;;;;;;;5000607;28;20352;-82
2023/06/18 07:48:56;;;;;;;;;;;;;;;;;;4998953;28;19918;-81
2023/06/18 07:51:43;;;;;;;;;;;;;;;;;;5002737;28;19928;-83
2023/06/18 07:54:30;;;;;;;;;;;;;;;;;;5004975;28;20336;-83
2023/06/18 07:57:16;;;;;;;;;;;;;;;;;;4990641;28;19953;-82
2023/06/18 08:00:03;;;;;;;;;;;;;;;;;;4986728;28;19918;-82
2023/06/18 08:02:49;;;;;;;;;;;;;;;;;;5002699;28;19918;-82
2023/06/18 08:05:36;;;;;;;;;;;;;;;;;;5001464;28;19917;-83
2023/06/18 08:08:22;;;;;;;;;;;;;;;;;;5001880;28;19929;-82
2023/06/18 08:11:09;;;;;;;;;;;;;;;;;;4991524;28;19929;-83
2023/06/18 08:13:55;;;;;;;;;;;;;;;;;;5002199;28;19928;-83
2023/06/18 08:16:42;;;;;;;;;;;;;;;;;;5001110;28;19933;-83
2023/06/18 08:19:28;;;;;;;;;;;;;;;;;;4997395;28;19918;-82
2023/06/18 08:22:15;;;;;;;;;;;;;;;;;;5000829;28;19922;-83
2023/06/18 08:25:01;;;;;;;;;;;;;;;;;;4989267;28;19929;-83
2023/06/18 08:27:48;;;;;;;;;;;;;;;;;;4992021;28;19933;-83
2023/06/18 08:30:34;;;;;;;;;;;;;;;;;;5004679;28;19925;-83
2023/06/18 08:33:21;;;;;;;;;;;;;;;;;;5002300;28;19918;-84
2023/06/18 08:36:07;;;;;;;;;;;;;;;;;;5004881;28;19922;-83
2023/06/18 08:38:54;;;;;;;;;;;;;;;;;;4994610;28;19952;-86
2023/06/18 08:41:42;;;;;;;;;;;;;;;;;;5002695;28;20269;-83
2023/06/18 08:44:29;;;;;;;;;;;;;;;;;;4990600;28;19941;-83
2023/06/18 08:47:15;;;;;;;;;;;;;;;;;;4997522;28;19924;-83
2023/06/18 08:50:02;;;;;;;;;;;;;;;;;;4997220;28;19924;-83
2023/06/18 08:52:48;;;;;;;;;;;;;;;;;;4997804;28;19925;-83
2023/06/18 08:55:35;;;;;;;;;;;;;;;;;;5001331;28;19925;-83
2023/06/18 08:58:21;;;;;;;;;;;;;;;;;;5001805;28;19936;-81
2023/06/18 09:01:08;;;;;;;;;;;;;;;;;;4992886;28;19917;-83
2023/06/18 09:03:55;;;;;;;;;;;;;;;;;;4999827;28;19922;-83
2023/06/18 09:06:42;;;;;;;;;;;;;;;;;;4994532;28;19926;-83
2023/06/18 09:09:29;;;;;;;;;;;;;;;;;;4999821;28;19918;-83
2023/06/18 09:12:16;;;;;;;;;;;;;;;;;;5003275;28;20445;-83
2023/06/18 09:15:02;;;;;;;;;;;;;;;;;;4994411;28;19929;-82
2023/06/18 09:17:49;;;;;;;;;;;;;;;;;;5002909;28;20373;-83
2023/06/18 09:20:36;;;;;;;;;;;;;;;;;;4994183;28;19941;-82
2023/06/18 09:23:22;;;;;;;;;;;;;;;;;;4990745;28;19922;-82
2023/06/18 09:26:09;;;;;;;;;;;;;;;;;;4997996;28;19925;-83
2023/06/18 09:28:55;;;;;;;;;;;;;;;;;;5000318;28;19917;-83
2023/06/18 09:31:44;;;;;;;;;;;;;;;;;;5000612;28;19925;-83
2023/06/18 09:34:31;;;;;;;;;;;;;;;;;;5001703;28;19997;-82
2023/06/18 09:37:17;;;;;;;;;;;;;;;;;;4998139;28;19945;-82
2023/06/18 09:40:03;;;;;;;;;;;;;;;;;;4990949;28;19922;-83
2023/06/18 09:42:50;;;;;;;;;;;;;;;;;;5003853;28;19925;-82
2023/06/18 09:45:36;;;;;;;;;;;;;;;;;;4996511;28;19924;-83
2023/06/18 09:48:23;;;;;;;;;;;;;;;;;;5005457;28;19936;-83
2023/06/18 09:51:10;;;;;;;;;;;;;;;;;;4997970;28;19925;-82
2023/06/18 09:53:56;;;;;;;;;;;;;;;;;;4990415;28;19921;-82
2023/06/18 09:56:43;;;;;;;;;;;;;;;;;;4998803;28;19921;-83
2023/06/18 09:59:30;;;;;;;;;;;;;;;;;;5006621;28;19928;-84
2023/06/18 10:02:16;;;;;;;;;;;;;;;;;;5008274;28;19917;-83
2023/06/18 10:05:03;;;;;;;;;;;;;;;;;;4996475;28;19917;-83
2023/06/18 10:07:49;;;;;;;;;;;;;;;;;;4997951;28;20266;-82
2023/06/18 10:10:36;;;;;;;;;;;;;;;;;;4995546;28;20033;-83
2023/06/18 10:13:22;;;;;;;;;;;;;;;;;;4992789;28;19929;-82
2023/06/18 10:16:09;;;;;;;;;;;;;;;;;;5006056;28;19914;-82
2023/06/18 10:18:56;;;;;;;;;;;;;;;;;;5002049;28;19921;-84
2023/06/18 10:21:42;;;;;;;;;;;;;;;;;;4993301;28;19928;-83
2023/06/18 10:24:29;;;;;;;;;;;;;;;;;;4991739;28;19933;-82
2023/06/18 10:27:15;;;;;;;;;;;;;;;;;;4999029;28;19917;-84
2023/06/18 10:30:02;;;;;;;;;;;;;;;;;;4997811;28;20289;-82
2023/06/18 10:32:48;;;;;;;;;;;;;;;;;;4992610;28;19941;-83
2023/06/18 10:35:35;;;;;;;;;;;;;;;;;;5004968;28;19924;-82
2023/06/18 10:38:21;;;;;;;;;;;;;;;;;;5003688;28;19925;-81
2023/06/18 10:41:08;;;;;;;;;;;;;;;;;;4993104;28;19922;-85
2023/06/18 10:43:55;;;;;;;;;;;;;;;;;;4998448;28;19923;-83
2023/06/18 10:46:41;;;;;;;;;;;;;;;;;;5001974;28;20330;-83
2023/06/18 10:49:28;;;;;;;;;;;;;;;;;;4996821;28;20021;-83
2023/06/18 10:52:15;;;;;;;;;;;;;;;;;;5001753;28;19914;-83
2023/06/18 10:55:02;;;;;;;;;;;;;;;;;;5006427;28;19921;-83
2023/06/18 10:57:48;;;;;;;;;;;;;;;;;;5006277;28;19930;-83
2023/06/18 11:00:35;;;;;;;;;;;;;;;;;;5003117;28;20628;-83
2023/06/18 11:03:21;;;;;;;;;;;;;;;;;;4996450;28;19918;-82
2023/06/18 11:06:08;;;;;;;;;;;;;;;;;;5001842;28;20032;-83
2023/06/18 11:08:55;;;;;;;;;;;;;;;;;;5000263;28;19928;-82
2023/06/18 11:11:41;;;;;;;;;;;;;;;;;;4998673;28;20993;-82
2023/06/18 11:14:28;;;;;;;;;;;;;;;;;;4996811;28;19922;-82
2023/06/18 11:17:14;;;;;;;;;;;;;;;;;;5003752;28;20325;-83
2023/06/18 11:20:01;;;;;;;;;;;;;;;;;;5003700;28;19924;-83
2023/06/18 11:22:47;;;;;;;;;;;;;;;;;;4999427;28;20664;-83
2023/06/18 11:25:34;;;;;;;;;;;;;;;;;;5004455;28;19936;-83
2023/06/18 11:28:21;;;;;;;;;;;;;;;;;;4999222;28;19922;-83
2023/06/18 11:31:07;;;;;;;;;;;;;;;;;;4997294;28;20289;-83
2023/06/18 11:33:54;;;;;;;;;;;;;;;;;;5000613;28;20293;-84
2023/06/18 11:36:41;;;;;;;;;;;;;;;;;;5001139;28;19928;-83
2023/06/18 11:39:27;;;;;;;;;;;;;;;;;;5000871;28;19926;-83
2023/06/18 11:42:14;;;;;;;;;;;;;;;;;;4999303;28;19942;-82
2023/06/18 11:45:03;;;;;;;;;;;;;;;;;;5000507;28;19913;-82
2023/06/18 11:47:50;;;;;;;;;;;;;;;;;;5006409;28;20373;-83
2023/06/18 11:50:36;;;;;;;;;;;;;;;;;;5005974;28;20391;-82
2023/06/18 11:53:23;;;;;;;;;;;;;;;;;;5005088;28;19921;-82
2023/06/18 11:56:09;;;;;;;;;;;;;;;;;;5007861;28;19924;-82
2023/06/18 11:58:56;;;;;;;;;;;;;;;;;;5002772;28;20420;-83
2023/06/18 12:01:44;;;;;;;;;;;;;;;;;;5003273;28;19914;-82
2023/06/18 12:04:31;;;;;;;;;;;;;;;;;;5003454;28;19937;-82
2023/06/18 12:07:18;;;;;;;;;;;;;;;;;;5000373;28;19921;-83
2023/06/18 12:10:05;;;;;;;;;;;;;;;;;;5000207;28;19947;-84
2023/06/18 12:12:52;;;;;;;;;;;;;;;;;;4992631;28;20381;-83
2023/06/18 12:15:38;;;;;;;;;;;;;;;;;;5002910;28;20433;-82
2023/06/18 12:18:26;;;;;;;;;;;;;;;;;;5002782;28;19936;-84
2023/06/18 12:21:12;;;;;;;;;;;;;;;;;;5005434;28;19924;-82
2023/06/18 12:23:59;;;;;;;;;;;;;;;;;;5003156;28;19952;-82
2023/06/18 12:26:45;;;;;;;;;;;;;;;;;;5002934;28;20116;-83
2023/06/18 12:29:32;;;;;;;;;;;;;;;;;;5000936;28;19917;-82
2023/06/18 12:32:19;;;;;;;;;;;;;;;;;;4995826;28;19925;-83
2023/06/18 12:35:05;;;;;;;;;;;;;;;;;;5003860;28;19928;-83
2023/06/18 12:37:52;;;;;;;;;;;;;;;;;;5000939;28;19937;-83
2023/06/18 12:40:38;;;;;;;;;;;;;;;;;;4995220;28;19921;-82
2023/06/18 12:43:25;;;;;;;;;;;;;;;;;;4997246;28;19917;-82
2023/06/18 12:46:14;;;;;;;;;;;;;;;;;;4999073;28;19925;-83
2023/06/18 12:49:03;;;;;;;;;;;;;;;;;;5002383;28;20630;-82
2023/06/18 12:51:53;;;;;;;;;;;;;;;;;;4995631;28;19924;-82
2023/06/18 12:54:39;;;;;;;;;;;;;;;;;;5002749;28;19920;-82
2023/06/18 12:57:26;;;;;;;;;;;;;;;;;;4984835;28;19929;-82
2023/06/18 13:00:12;;;;;;;;;;;;;;;;;;4998624;28;19922;-84
2023/06/18 13:02:59;;;;;;;;;;;;;;;;;;5002639;28;19917;-82
2023/06/18 13:05:46;;;;;;;;;;;;;;;;;;5003811;28;19917;-82
2023/06/18 13:08:33;;;;;;;;;;;;;;;;;;5002081;28;19918;-82
2023/06/18 13:11:19;;;;;;;;;;;;;;;;;;5005603;28;20015;-83
2023/06/18 13:14:06;;;;;;;;;;;;;;;;;;5002071;28;19929;-82
2023/06/18 13:16:53;;;;;;;;;;;;;;;;;;5008883;28;20517;-81
2023/06/18 13:19:39;;;;;;;;;;;;;;;;;;5004107;28;19948;-81
2023/06/18 13:22:26;;;;;;;;;;;;;;;;;;5001174;28;19917;-82
2023/06/18 13:25:13;;;;;;;;;;;;;;;;;;5001351;28;19936;-82
2023/06/18 13:28:00;;;;;;;;;;;;;;;;;;5001561;28;19918;-82
2023/06/18 13:30:47;;;;;;;;;;;;;;;;;;4998347;28;19921;-80
2023/06/18 13:33:33;;;;;;;;;;;;;;;;;;5000470;28;19917;-79
2023/06/18 13:36:20;;;;;;;;;;;;;;;;;;4998416;28;19918;-78
2023/06/18 13:39:06;;;;;;;;;;;;;;;;;;4990942;28;19936;-79
2023/06/18 13:41:53;;;;;;;;;;;;;;;;;;4997208;28;20348;-78
2023/06/18 13:44:40;;;;;;;;;;;;;;;;;;4996713;28;19922;-79
2023/06/18 13:47:26;;;;;;;;;;;;;;;;;;4993368;28;19922;-79
2023/06/18 13:50:13;;;;;;;;;;;;;;;;;;4995869;28;20369;-79
2023/06/18 13:53:00;;;;;;;;;;;;;;;;;;4993529;28;19924;-79
2023/06/18 13:55:46;;;;;;;;;;;;;;;;;;5001246;28;19913;-79
2023/06/18 13:58:33;;;;;;;;;;;;;;;;;;4992834;28;20444;-79
2023/06/18 14:01:19;;;;;;;;;;;;;;;;;;4999455;28;19917;-83
2023/06/18 14:04:06;;;;;;;;;;;;;;;;;;4997039;28;19924;-85
2023/06/18 14:06:52;;;;;;;;;;;;;;;;;;4991345;28;19917;-80
2023/06/18 14:09:39;;;;;;;;;;;;;;;;;;5000811;28;19932;-79
2023/06/18 14:12:26;;;;;;;;;;;;;;;;;;5002226;28;19929;-79
2023/06/18 14:15:13;;;;;;;;;;;;;;;;;;5001388;28;20600;-79
2023/06/18 14:17:59;;;;;;;;;;;;;;;;;;4998034;28;20403;-79
2023/06/18 14:20:46;;;;;;;;;;;;;;;;;;4994971;28;19918;-77
2023/06/18 14:23:32;;;;;;;;;;;;;;;;;;4991441;28;19933;-82
2023/06/18 14:26:19;;;;;;;;;;;;;;;;;;5001191;28;19921;-78
2023/06/18 14:29:06;;;;;;;;;;;;;;;;;;4997851;28;19922;-78
2023/06/18 14:31:52;;;;;;;;;;;;;;;;;;4999698;28;20288;-80
2023/06/18 14:34:38;;;;;;;;;;;;;;;;;;4983403;28;19926;-79
2023/06/18 14:37:25;;;;;;;;;;;;;;;;;;4997676;28;19922;-79
2023/06/18 14:40:13;;;;;;;;;;;;;;;;;;5002676;28;19929;-79
2023/06/18 14:42:59;;;;;;;;;;;;;;;;;;4995883;28;19917;-80
2023/06/18 14:45:46;;;;;;;;;;;;;;;;;;5004304;28;19918;-78
2023/06/18 14:48:35;;;;;;;;;;;;;;;;;;5005456;28;19918;-79
2023/06/18 14:51:21;;;;;;;;;;;;;;;;;;5003171;28;19919;-80
2023/06/18 14:54:12;;;;;;;;;;;;;;;;;;5004385;28;19926;-80
2023/06/18 14:56:58;;;;;;;;;;;;;;;;;;4998122;28;19933;-79
2023/06/18 14:59:45;;;;;;;;;;;;;;;;;;5013819;28;19920;-79
2023/06/18 15:02:31;;;;;;;;;;;;;;;;;;5004487;28;20387;-78
2023/06/18 15:05:18;;;;;;;;;;;;;;;;;;4994381;28;19969;-79
2023/06/18 15:08:04;;;;;;;;;;;;;;;;;;5013430;28;19917;-79
2023/06/18 15:10:51;;;;;;;;;;;;;;;;;;4994632;28;19921;-78
2023/06/18 15:13:37;;;;;;;;;;;;;;;;;;5003473;28;20417;-79
2023/06/18 15:16:24;;;;;;;;;;;;;;;;;;4998177;28;19928;-79
2023/06/18 15:19:10;;;;;;;;;;;;;;;;;;5003987;28;19930;-79
2023/06/18 15:21:57;;;;;;;;;;;;;;;;;;5002489;28;19948;-79
2023/06/18 15:24:44;;;;;;;;;;;;;;;;;;5003751;28;20407;-79
2023/06/18 15:27:31;;;;;;;;;;;;;;;;;;5006764;28;19924;-78
2023/06/18 15:30:17;;;;;;;;;;;;;;;;;;5001598;28;19929;-79
2023/06/18 15:33:04;;;;;;;;;;;;;;;;;;5000377;28;20292;-79
2023/06/18 15:35:50;;;;;;;;;;;;;;;;;;5003883;28;20289;-78
2023/06/18 15:38:37;;;;;;;;;;;;;;;;;;5001621;28;19926;-79
2023/06/18 15:41:24;;;;;;;;;;;;;;;;;;5004792;28;19932;-79
2023/06/18 15:44:11;;;;;;;;;;;;;;;;;;4994295;28;19921;-78
2023/06/18 15:46:58;;;;;;;;;;;;;;;;;;5001398;28;19917;-79
2023/06/18 15:49:45;;;;;;;;;;;;;;;;;;5004518;28;19921;-79
2023/06/18 15:52:31;;;;;;;;;;;;;;;;;;4999729;28;19917;-79
2023/06/18 15:55:18;;;;;;;;;;;;;;;;;;4998856;28;19948;-77
2023/06/18 15:58:04;;;;;;;;;;;;;;;;;;4991630;28;19937;-78
2023/06/18 16:00:51;;;;;;;;;;;;;;;;;;4996650;28;19918;-78
2023/06/18 16:03:37;;;;;;;;;;;;;;;;;;5003571;28;20114;-77
2023/06/18 16:06:24;;;;;;;;;;;;;;;;;;4994333;28;19965;-78
2023/06/18 16:09:10;;;;;;;;;;;;;;;;;;5004419;28;19921;-77
2023/06/18 16:11:57;;;;;;;;;;;;;;;;;;4994578;28;19929;-78
2023/06/18 16:14:43;;;;;;;;;;;;;;;;;;4999349;28;20595;-80
2023/06/18 16:17:30;;;;;;;;;;;;;;;;;;4996860;28;19926;-78
2023/06/18 16:20:17;;;;;;;;;;;;;;;;;;4996026;28;19930;-78
2023/06/18 16:23:03;;;;;;;;;;;;;;;;;;4990811;28;20246;-76
2023/06/18 16:25:50;;;;;;;;;;;;;;;;;;4994404;28;19928;-81
2023/06/18 16:28:37;;;;;;;;;;;;;;;;;;4995638;28;20257;-76
2023/06/18 16:31:23;;;;;;;;;;;;;;;;;;4992732;28;20564;-77
2023/06/18 16:34:10;;;;;;;;;;;;;;;;;;4995834;28;19925;-78
2023/06/18 16:36:56;;;;;;;;;;;;;;;;;;4999833;28;20278;-78
2023/06/18 16:39:43;;;;;;;;;;;;;;;;;;4995063;28;20377;-77
2023/06/18 16:42:29;;;;;;;;;;;;;;;;;;4992108;28;19925;-77
2023/06/18 16:45:16;;;;;;;;;;;;;;;;;;4994337;28;20589;-78
2023/06/18 16:48:02;;;;;;;;;;;;;;;;;;4994378;28;19924;-78
2023/06/18 16:50:49;;;;;;;;;;;;;;;;;;4993988;28;19918;-79
2023/06/18 16:53:36;;;;;;;;;;;;;;;;;;4987500;28;19924;-78
2023/06/18 16:56:22;;;;;;;;;;;;;;;;;;4986856;28;19914;-77
2023/06/18 16:59:09;;;;;;;;;;;;;;;;;;4998359;28;19933;-77
2023/06/18 17:01:55;;;;;;;;;;;;;;;;;;4993436;28;19914;-81
2023/06/18 17:04:42;;;;;;;;;;;;;;;;;;4995879;28;19937;-80
2023/06/18 17:07:28;;;;;;;;;;;;;;;;;;4993791;28;19929;-81
2023/06/18 17:10:15;;;;;;;;;;;;;;;;;;4995931;28;20312;-81
2023/06/18 17:13:01;;;;;;;;;;;;;;;;;;4995536;28;19917;-82
2023/06/18 17:15:48;;;;;;;;;;;;;;;;;;4991173;28;19921;-81
2023/06/18 17:18:34;;;;;;;;;;;;;;;;;;4998976;28;19932;-81
2023/06/18 17:21:21;;;;;;;;;;;;;;;;;;4997364;28;19918;-78
2023/06/18 17:24:07;;;;;;;;;;;;;;;;;;4979887;28;20297;-80
2023/06/18 17:26:54;;;;;;;;;;;;;;;;;;4988946;28;19918;-79
2023/06/18 17:29:42;;;;;;;;;;;;;;;;;;4980874;28;19918;-79
2023/06/18 17:32:28;;;;;;;;;;;;;;;;;;4998033;28;20380;-81
2023/06/18 17:35:15;;;;;;;;;;;;;;;;;;4994078;28;19953;-80
2023/06/18 17:38:01;;;;;;;;;;;;;;;;;;4990120;28;19926;-82
2023/06/18 17:40:48;;;;;;;;;;;;;;;;;;5002129;28;19928;-78
2023/06/18 17:43:34;;;;;;;;;;;;;;;;;;4990821;28;19918;-81
2023/06/18 17:46:21;;;;;;;;;;;;;;;;;;4994727;28;19989;-79
2023/06/18 17:49:07;;;;;;;;;;;;;;;;;;4985084;28;19928;-79
2023/06/18 17:51:54;;;;;;;;;;;;;;;;;;4997701;28;19924;-79
2023/06/18 17:54:41;;;;;;;;;;;;;;;;;;4997050;28;19940;-81
2023/06/18 17:57:27;;;;;;;;;;;;;;;;;;4992106;28;19932;-81
2023/06/18 18:00:14;;;;;;;;;;;;;;;;;;4994412;28;19932;-81
2023/06/18 18:03:00;;;;;;;;;;;;;;;;;;5006357;28;20304;-80
2023/06/18 18:05:46;;;;;;;;;;;;;;;;;;4989271;28;20391;-81
2023/06/18 18:08:33;;;;;;;;;;;;;;;;;;4991912;28;19924;-80
2023/06/18 18:11:20;;;;;;;;;;;;;;;;;;4992190;28;19926;-80
2023/06/18 18:14:06;;;;;;;;;;;;;;;;;;5003536;28;19935;-81
2023/06/18 18:16:53;;;;;;;;;;;;;;;;;;4998577;28;20359;-81
2023/06/18 18:19:39;;;;;;;;;;;;;;;;;;4990189;28;19932;-80
2023/06/18 18:22:26;;;;;;;;;;;;;;;;;;5000755;28;19937;-79
2023/06/18 18:25:12;;;;;;;;;;;;;;;;;;5003551;28;19925;-82
2023/06/18 18:27:59;;;;;;;;;;;;;;;;;;5002091;28;19932;-84
2023/06/18 18:30:45;;;;;;;;;;;;;;;;;;5003237;28;20384;-84
2023/06/18 18:33:32;;;;;;;;;;;;;;;;;;5006265;28;19924;-84
2023/06/18 18:36:19;;;;;;;;;;;;;;;;;;4995948;28;19925;-85
2023/06/18 18:39:06;;;;;;;;;;;;;;;;;;4992787;28;20689;-93
2023/06/18 18:41:52;;;;;;;;;;;;;;;;;;4994204;28;19918;-86
2023/06/18 18:44:39;;;;;;;;;;;;;;;;;;4997950;28;19922;-89
2023/06/18 18:47:26;;;;;;;;;;;;;;;;;;5005382;28;19917;-88
2023/06/18 18:50:12;;;;;;;;;;;;;;;;;;4999777;28;19920;-88
2023/06/18 18:52:59;;;;;;;;;;;;;;;;;;5000024;28;19944;-91
2023/06/18 18:55:45;;;;;;;;;;;;;;;;;;4995769;28;19921;-89
2023/06/18 18:58:32;;;;;;;;;;;;;;;;;;4989392;28;20301;-88